createdAt,value
2019-02-27T00:01:57.481Z,86.13
2019-02-27T00:04:26.131Z,85.93
2019-02-27T00:06:54.727Z,86.20
2019-02-27T00:09:22.621Z,86.29
2019-02-27T00:11:50.623Z,86.29
2019-02-27T00:14:19.196Z,87.27
2019-02-27T00:16:47.086Z,86.99
2019-02-27T00:19:15.716Z,86.43
2019-02-27T00:21:44.391Z,86.09
2019-02-27T00:24:12.683Z,86.18
2019-02-27T00:26:42.539Z,85.82
2019-02-27T00:29:17.862Z,86.48
2019-02-27T00:31:46.303Z,85.86
2019-02-27T00:34:14.550Z,86.05
2019-02-27T00:36:45.072Z,86.01
2019-02-27T00:39:19.684Z,86.28
2019-02-27T00:41:47.642Z,86.03
2019-02-27T00:44:15.414Z,85.89
2019-02-27T00:46:46.099Z,85.98
2019-02-27T00:49:20.087Z,85.92
2019-02-27T00:51:48.029Z,86.16
2019-02-27T00:54:16.226Z,86.75
2019-02-27T00:56:45.001Z,86.67
2019-02-27T00:59:20.875Z,86.58
2019-02-27T01:01:48.799Z,87.14
2019-02-27T01:04:17.467Z,86.93
2019-02-27T01:06:47.462Z,86.80
2019-02-27T01:09:25.561Z,86.92
2019-02-27T01:11:54.257Z,87.13
2019-02-27T01:14:22.529Z,87.32
2019-02-27T01:16:51.121Z,87.04
2019-02-27T01:19:19.740Z,86.67
2019-02-27T01:21:48.425Z,86.67
2019-02-27T01:24:17.543Z,87.22
2019-02-27T01:26:56.041Z,86.88
2019-02-27T01:29:23.938Z,87.13
2019-02-27T01:31:54.994Z,87.00
2019-02-27T01:34:28.439Z,86.79
2019-02-27T01:36:58.061Z,86.82
2019-02-27T01:39:34.316Z,86.39
2019-02-27T01:42:02.501Z,86.31
2019-02-27T01:44:30.460Z,86.35
2019-02-27T01:47:01.831Z,86.65
2019-02-27T01:49:38.675Z,86.71
2019-02-27T01:52:06.456Z,86.69
2019-02-27T01:54:34.660Z,86.97
2019-02-27T01:57:03.601Z,86.57
2019-02-27T01:59:32.239Z,86.65
2019-02-27T02:02:01.080Z,87.01
2019-02-27T02:04:37.007Z,86.51
2019-02-27T02:07:06.669Z,86.70
2019-02-27T02:10:00.986Z,86.67
2019-02-27T02:12:31.206Z,86.15
2019-02-27T02:15:20.872Z,85.97
2019-02-27T02:18:27.568Z,85.96
2019-02-27T02:21:34.983Z,85.36
2019-02-27T02:24:41.313Z,86.04
2019-02-27T02:27:47.716Z,86.04
2019-02-27T02:30:54.287Z,85.65
2019-02-27T02:34:05.150Z,85.40
2019-02-27T02:37:08.910Z,85.02
2019-02-27T02:40:15.533Z,85.16
2019-02-27T02:43:09.031Z,85.46
2019-02-27T02:46:15.677Z,85.61
2019-02-27T02:49:22.041Z,86.33
2019-02-27T02:52:28.709Z,86.63
2019-02-27T02:55:35.475Z,86.00
2019-02-27T02:58:47.187Z,86.50
2019-02-27T03:01:49.297Z,86.56
2019-02-27T03:04:56.533Z,86.90
2019-02-27T03:07:52.881Z,86.73
2019-02-27T03:10:43.754Z,86.15
2019-02-27T03:13:50.548Z,86.44
2019-02-27T03:16:57.199Z,86.54
2019-02-27T03:19:41.299Z,87.11
2019-02-27T03:22:40.165Z,86.61
2019-02-27T03:25:52.966Z,86.88
2019-02-27T03:28:59.365Z,86.59
2019-02-27T03:32:05.718Z,86.40
2019-02-27T03:35:12.347Z,86.24
2019-02-27T03:38:02.486Z,86.11
2019-02-27T03:41:08.862Z,86.33
2019-02-27T03:44:20.230Z,86.84
2019-02-27T03:47:17.401Z,86.64
2019-02-27T03:49:57.237Z,87.10
2019-02-27T03:52:58.661Z,87.20
2019-02-27T03:56:08.570Z,86.70
2019-02-27T03:59:19.367Z,86.83
2019-02-27T04:02:26.050Z,86.74
2019-02-27T04:05:19.208Z,86.33
2019-02-27T04:08:26.050Z,86.49
2019-02-27T04:10:54.635Z,86.01
2019-02-27T04:13:42.249Z,86.22
2019-02-27T04:19:12.158Z,86.65
2019-02-27T04:21:40.395Z,86.51
2019-02-27T04:24:08.848Z,86.64
2019-02-27T04:26:41.472Z,86.04
2019-02-27T04:29:14.189Z,86.06
2019-02-27T04:31:42.582Z,85.99
2019-02-27T04:34:10.159Z,85.58
2019-02-27T04:36:38.748Z,85.14
2019-02-27T04:39:07.434Z,84.71
2019-02-27T04:41:35.588Z,84.82
2019-02-27T04:44:06.023Z,85.23
2019-02-27T04:46:43.681Z,86.08
2019-02-27T04:49:11.606Z,86.46
2019-02-27T04:51:39.136Z,87.02
2019-02-27T04:54:07.680Z,86.91
2019-02-27T04:56:35.880Z,87.05
2019-02-27T04:59:04.431Z,86.76
2019-02-27T05:01:36.339Z,86.49
2019-02-27T05:04:08.878Z,87.35
2019-02-27T05:06:37.157Z,86.90
2019-02-27T05:09:46.689Z,86.55
2019-02-27T05:12:14.813Z,86.81
2019-02-27T05:14:43.356Z,86.71
2019-02-27T05:17:11.978Z,86.70
2019-02-27T05:19:40.634Z,86.68
2019-02-27T05:22:08.883Z,86.17
2019-02-27T05:24:40.822Z,85.76
2019-02-27T05:27:14.015Z,86.04
2019-02-27T05:29:54.386Z,85.83
2019-02-27T05:32:25.304Z,85.53
2019-02-27T05:34:59.167Z,85.58
2019-02-27T05:37:27.053Z,85.79
2019-02-27T05:39:55.740Z,86.15
2019-02-27T05:42:23.922Z,86.64
2019-02-27T05:44:55.602Z,86.52
2019-02-27T05:47:47.819Z,86.35
2019-02-27T05:50:35.432Z,86.17
2019-02-27T05:53:03.628Z,86.34
2019-02-27T05:55:31.501Z,87.07
2019-02-27T05:57:59.368Z,86.87
2019-02-27T06:00:28.363Z,86.62
2019-02-27T06:02:56.928Z,86.81
2019-02-27T06:05:36.747Z,86.97
2019-02-27T06:08:05.482Z,86.79
2019-02-27T06:10:34.003Z,87.27
2019-02-27T06:13:02.141Z,86.83
2019-02-27T06:15:30.769Z,86.63
2019-02-27T06:17:59.067Z,86.51
2019-02-27T06:20:27.451Z,86.19
2019-02-27T06:22:55.270Z,85.96
2019-02-27T06:25:24.027Z,85.92
2019-02-27T06:28:00.228Z,85.96
2019-02-27T06:30:40.276Z,86.42
2019-02-27T06:33:11.635Z,86.13
2019-02-27T06:35:45.856Z,85.97
2019-02-27T06:38:14.358Z,85.57
2019-02-27T06:40:42.951Z,84.11
2019-02-27T06:43:11.304Z,84.55
2019-02-27T06:45:39.905Z,85.01
2019-02-27T06:48:10.269Z,85.14
2019-02-27T06:50:45.267Z,85.18
2019-02-27T06:53:16.416Z,84.54
2019-02-27T06:55:44.091Z,85.09
2019-02-27T06:58:14.775Z,85.12
2019-02-27T07:00:52.681Z,85.58
2019-02-27T07:03:21.248Z,85.72
2019-02-27T07:05:49.581Z,85.84
2019-02-27T07:08:17.917Z,85.58
2019-02-27T07:10:46.146Z,85.55
2019-02-27T07:13:14.630Z,85.25
2019-02-27T07:15:47.755Z,85.25
2019-02-27T07:18:13.810Z,85.31
2019-02-27T07:20:42.064Z,85.13
2019-02-27T07:23:10.023Z,85.03
2019-02-27T07:25:41.909Z,84.96
2019-02-27T07:28:14.452Z,85.06
2019-02-27T07:30:43.282Z,84.69
2019-02-27T07:33:11.135Z,84.55
2019-02-27T07:35:38.716Z,84.60
2019-02-27T07:38:07.393Z,84.31
2019-02-27T07:40:35.358Z,84.22
2019-02-27T07:43:05.769Z,84.26
2019-02-27T07:45:42.810Z,84.19
2019-02-27T07:48:17.204Z,83.94
2019-02-27T07:50:48.367Z,83.52
2019-02-27T07:53:21.750Z,83.26
2019-02-27T07:55:50.258Z,83.18
2019-02-27T07:58:18.627Z,83.32
2019-02-27T08:00:47.194Z,82.83
2019-02-27T08:03:23.153Z,82.42
2019-02-27T08:05:51.679Z,82.09
2019-02-27T08:08:23.215Z,81.82
2019-02-27T08:10:57.126Z,81.53
2019-02-27T08:13:27.005Z,81.37
2019-02-27T08:16:02.305Z,81.23
2019-02-27T08:18:33.706Z,80.68
2019-02-27T08:21:00.436Z,80.41
2019-02-27T08:23:28.417Z,80.14
2019-02-27T08:25:56.742Z,80.13
2019-02-27T08:28:24.926Z,80.22
2019-02-27T08:30:52.778Z,80.22
2019-02-27T08:33:21.064Z,79.33
2019-02-27T08:35:49.266Z,73.30
2019-02-27T08:38:18.055Z,69.52
2019-02-27T08:40:46.223Z,69.52
2019-02-27T08:43:14.948Z,70.04
2019-02-27T08:45:43.290Z,69.77
2019-02-27T08:48:11.577Z,70.15
2019-02-27T08:50:39.754Z,70.62
2019-02-27T08:53:08.357Z,71.65
2019-02-27T08:55:39.207Z,72.84
2019-02-27T08:58:13.656Z,71.80
2019-02-27T09:00:53.908Z,71.53
2019-02-27T09:06:30.962Z,66.18
2019-02-27T09:08:59.173Z,65.07
2019-02-27T09:11:27.409Z,63.14
2019-02-27T09:17:35.799Z,61.56
2019-02-27T09:20:23.128Z,59.88
2019-02-27T09:23:31.730Z,58.89
2019-02-27T09:32:03.004Z,51.26
2019-02-27T09:34:31.322Z,48.34
2019-02-27T09:36:59.757Z,45.43
2019-02-27T09:39:31.212Z,44.00
2019-02-27T09:42:04.223Z,43.14
2019-02-27T09:44:36.106Z,39.50
2019-02-27T09:47:09.685Z,37.00
2019-02-27T09:49:40.771Z,34.00
2019-02-27T09:52:15.150Z,33.26
2019-02-27T09:54:46.770Z,33.90
2019-02-27T09:57:20.507Z,31.12
2019-02-27T09:59:51.161Z,31.01
2019-02-27T10:02:26.276Z,28.06
2019-02-27T10:04:54.878Z,27.22
2019-02-27T10:07:23.569Z,27.58
2019-02-27T10:09:52.171Z,26.39
2019-02-27T10:12:20.110Z,25.61
2019-02-27T10:14:50.259Z,24.42
2019-02-27T10:17:25.158Z,24.67
2019-02-27T10:19:53.772Z,23.95
2019-02-27T10:22:22.293Z,22.91
2019-02-27T10:24:50.630Z,22.85
2019-02-27T10:27:19.222Z,22.26
2019-02-27T10:30:11.557Z,21.74
2019-02-27T10:32:43.878Z,24.06
2019-02-27T10:38:26.163Z,22.07
2019-02-27T10:41:13.968Z,21.31
2019-02-27T10:43:42.654Z,21.01
2019-02-27T10:46:11.246Z,19.76
2019-02-27T10:48:39.833Z,20.26
2019-02-27T10:51:09.450Z,18.83
2019-02-27T10:53:38.418Z,17.24
2019-02-27T10:56:07.147Z,16.47
2019-02-27T10:58:35.832Z,19.78
2019-02-27T11:01:03.802Z,19.96
2019-02-27T11:03:32.392Z,19.57
2019-02-27T11:06:00.336Z,18.42
2019-02-27T11:08:29.586Z,17.43
2019-02-27T11:10:57.863Z,17.73
2019-02-27T11:13:26.555Z,18.31
2019-02-27T11:15:55.152Z,17.11
2019-02-27T11:18:23.590Z,16.11
2019-02-27T11:20:51.843Z,16.76
2019-02-27T11:23:19.669Z,17.74
2019-02-27T11:25:48.061Z,17.79
2019-02-27T11:28:16.303Z,17.89
2019-02-27T11:30:44.976Z,17.73
2019-02-27T11:33:24.747Z,17.33
2019-02-27T11:35:49.387Z,15.47
2019-02-27T11:38:18.013Z,15.48
2019-02-27T11:40:46.443Z,19.94
2019-02-27T11:43:14.728Z,17.34
2019-02-27T11:45:43.340Z,17.82
2019-02-27T11:48:11.327Z,16.98
2019-02-27T11:50:39.533Z,18.31
2019-02-27T11:53:08.128Z,18.67
2019-02-27T11:55:36.457Z,18.20
2019-02-27T11:58:05.633Z,17.12
2019-02-27T12:00:34.081Z,16.26
2019-02-27T12:03:02.039Z,16.11
2019-02-27T12:05:34.041Z,17.71
2019-02-27T12:08:01.338Z,17.33
2019-02-27T12:16:26.042Z,16.73
2019-02-27T12:22:21.834Z,18.90
2019-02-27T12:24:52.849Z,17.17
2019-02-27T12:27:48.777Z,18.30
2019-02-27T12:30:14.058Z,18.69
2019-02-27T12:32:42.835Z,16.98
2019-02-27T12:35:55.508Z,19.59
2019-02-27T12:41:43.977Z,16.28
2019-02-27T12:44:11.905Z,16.84
2019-02-27T12:46:39.831Z,18.18
2019-02-27T12:49:08.040Z,19.29
2019-02-27T12:51:38.355Z,18.30
2019-02-27T12:54:06.556Z,19.61
2019-02-27T12:56:35.006Z,16.42
2019-02-27T12:59:03.287Z,16.78
2019-02-27T13:01:31.797Z,17.61
2019-02-27T13:03:59.644Z,17.59
2019-02-27T13:06:27.395Z,14.23
2019-02-27T13:08:55.949Z,14.75
2019-02-27T13:11:35.381Z,14.09
2019-02-27T13:14:03.317Z,15.09
2019-02-27T13:16:31.604Z,16.75
2019-02-27T13:18:59.767Z,14.31
2019-02-27T13:21:27.990Z,16.54
2019-02-27T13:23:55.894Z,15.86
2019-02-27T13:26:24.508Z,14.70
2019-02-27T13:28:52.379Z,16.67
2019-02-27T13:31:21.064Z,14.50
2019-02-27T13:33:49.694Z,16.86
2019-02-27T13:36:17.948Z,16.32
2019-02-27T13:38:46.422Z,14.88
2019-02-27T13:41:15.499Z,12.76
2019-02-27T13:43:44.131Z,14.96
2019-02-27T13:46:12.662Z,12.22
2019-02-27T13:48:41.215Z,14.83
2019-02-27T13:51:09.377Z,15.03
2019-02-27T13:53:36.935Z,14.90
2019-02-27T13:56:05.630Z,16.96
2019-02-27T13:58:36.501Z,17.09
2019-02-27T14:01:04.249Z,17.10
2019-02-27T14:03:32.454Z,19.03
2019-02-27T14:06:00.829Z,19.61
2019-02-27T14:08:32.147Z,18.28
2019-02-27T14:11:00.038Z,18.10
2019-02-27T14:13:28.321Z,17.85
2019-02-27T14:15:58.081Z,16.59
2019-02-27T14:18:33.170Z,15.81
2019-02-27T14:21:01.689Z,17.32
2019-02-27T14:23:41.553Z,15.58
2019-02-27T14:26:09.709Z,14.27
2019-02-27T14:28:38.280Z,13.88
2019-02-27T14:31:09.013Z,13.74
2019-02-27T14:33:43.552Z,13.71
2019-02-27T14:36:11.819Z,14.47
2019-02-27T14:38:39.705Z,14.54
2019-02-27T14:41:08.415Z,14.56
2019-02-27T14:43:36.964Z,16.41
2019-02-27T14:46:04.894Z,16.18
2019-02-27T14:48:33.069Z,15.89
2019-02-27T14:51:01.317Z,15.25
2019-02-27T14:53:29.480Z,15.56
2019-02-27T14:55:57.813Z,15.22
2019-02-27T14:58:26.058Z,15.41
2019-02-27T15:00:54.832Z,15.31
2019-02-27T15:03:23.438Z,13.91
2019-02-27T15:05:51.855Z,14.49
2019-02-27T15:08:20.101Z,13.09
2019-02-27T15:10:47.931Z,12.15
2019-02-27T15:13:16.634Z,12.83
2019-02-27T15:15:46.076Z,13.09
2019-02-27T15:18:25.240Z,12.25
2019-02-27T15:20:53.577Z,12.37
2019-02-27T15:23:24.554Z,12.84
2019-02-27T15:25:58.350Z,14.46
2019-02-27T15:28:26.192Z,12.92
2019-02-27T15:30:54.803Z,13.09
2019-02-27T15:33:23.073Z,14.06
2019-02-27T15:35:55.061Z,13.92
2019-02-27T15:38:21.794Z,14.60
2019-02-27T15:40:49.332Z,14.84
2019-02-27T15:43:18.209Z,14.61
2019-02-27T15:45:48.041Z,15.05
2019-02-27T15:48:23.418Z,14.63
2019-02-27T15:51:03.904Z,15.99
2019-02-27T15:53:32.379Z,16.73
2019-02-27T15:56:00.339Z,16.33
2019-02-27T15:58:28.790Z,15.57
2019-02-27T16:01:04.860Z,16.07
2019-02-27T16:03:33.181Z,15.75
2019-02-27T16:06:04.950Z,15.42
2019-02-27T16:08:37.104Z,15.47
2019-02-27T16:11:05.740Z,15.64
2019-02-27T16:13:34.710Z,16.63
2019-02-27T16:16:14.383Z,16.07
2019-02-27T16:18:42.644Z,17.08
2019-02-27T16:21:12.136Z,19.42
2019-02-27T16:23:40.083Z,21.86
2019-02-27T16:26:08.379Z,24.46
2019-02-27T16:28:37.066Z,26.12
2019-02-27T16:31:06.166Z,28.17
2019-02-27T16:33:42.015Z,30.04
2019-02-27T16:36:15.212Z,32.49
2019-02-27T16:38:48.121Z,33.03
2019-02-27T16:43:56.024Z,35.41
2019-02-27T16:46:43.509Z,36.86
2019-02-27T16:49:09.642Z,37.99
2019-02-27T16:51:42.036Z,38.17
2019-02-27T16:54:10.545Z,39.11
2019-02-27T16:56:38.355Z,40.56
2019-02-27T16:59:08.268Z,41.58
2019-02-27T17:01:43.068Z,43.01
2019-02-27T17:04:11.470Z,43.14
2019-02-27T17:06:39.826Z,43.25
2019-02-27T17:09:10.075Z,44.36
2019-02-27T17:11:46.136Z,43.73
2019-02-27T17:14:14.420Z,45.25
2019-02-27T17:16:44.892Z,47.40
2019-02-27T17:19:19.395Z,46.07
2019-02-27T17:21:47.641Z,46.99
2019-02-27T17:24:20.970Z,47.57
2019-02-27T17:26:56.511Z,47.48
2019-02-27T17:29:26.498Z,48.45
2019-02-27T17:32:00.276Z,48.53
2019-02-27T17:34:29.004Z,49.91
2019-02-27T17:36:57.294Z,50.73
2019-02-27T17:39:28.934Z,51.55
2019-02-27T17:41:55.891Z,51.53
2019-02-27T17:44:24.296Z,52.87
2019-02-27T17:47:11.507Z,53.35
2019-02-27T17:49:39.710Z,53.77
2019-02-27T17:52:11.385Z,54.46
2019-02-27T17:54:44.130Z,55.45
2019-02-27T17:57:11.998Z,54.61
2019-02-27T17:59:42.391Z,55.17
2019-02-27T18:02:11.794Z,55.27
2019-02-27T18:04:40.111Z,56.16
2019-02-27T18:07:09.789Z,56.66
2019-02-27T18:09:40.383Z,57.18
2019-02-27T18:12:15.320Z,57.69
2019-02-27T18:14:45.469Z,58.08
2019-02-27T18:17:23.106Z,57.16
2019-02-27T18:20:02.642Z,56.62
2019-02-27T18:22:31.244Z,56.55
2019-02-27T18:24:59.887Z,56.14
2019-02-27T18:27:28.221Z,56.00
2019-02-27T18:29:57.003Z,55.51
2019-02-27T18:32:25.332Z,54.98
2019-02-27T18:34:54.641Z,54.79
2019-02-27T18:37:31.021Z,55.69
2019-02-27T18:39:59.649Z,56.28
2019-02-27T18:42:27.913Z,56.60
2019-02-27T18:44:56.206Z,56.05
2019-02-27T18:47:24.861Z,55.66
2019-02-27T18:49:53.065Z,56.92
2019-02-27T18:52:21.784Z,57.41
2019-02-27T18:54:50.419Z,57.93
2019-02-27T18:57:19.060Z,57.41
2019-02-27T18:59:47.275Z,58.10
2019-02-27T19:02:19.659Z,58.09
2019-02-27T19:04:45.751Z,58.26
2019-02-27T19:07:17.321Z,57.93
2019-02-27T19:09:51.561Z,58.71
2019-02-27T19:12:25.054Z,59.55
2019-02-27T19:14:56.437Z,60.09
2019-02-27T19:17:29.037Z,60.89
2019-02-27T19:20:01.209Z,61.52
2019-02-27T19:22:29.410Z,61.45
2019-02-27T19:25:00.149Z,62.28
2019-02-27T19:27:28.117Z,62.07
2019-02-27T19:29:56.867Z,62.13
2019-02-27T19:32:25.657Z,62.94
2019-02-27T19:34:53.908Z,62.77
2019-02-27T19:37:22.683Z,63.12
2019-02-27T19:39:53.350Z,63.67
2019-02-27T19:42:27.319Z,64.51
2019-02-27T19:44:55.539Z,64.49
2019-02-27T19:47:23.786Z,65.33
2019-02-27T19:49:52.357Z,65.84
2019-02-27T19:52:20.586Z,65.78
2019-02-27T19:54:52.638Z,65.62
2019-02-27T19:57:19.409Z,65.99
2019-02-27T19:59:48.062Z,66.70
2019-02-27T20:02:21.408Z,66.56
2019-02-27T20:04:53.501Z,66.21
2019-02-27T20:07:21.812Z,65.65
2019-02-27T20:09:51.370Z,65.03
2019-02-27T20:12:26.171Z,65.17
2019-02-27T20:14:54.921Z,65.28
2019-02-27T20:17:23.325Z,65.66
2019-02-27T20:19:51.646Z,65.83
2019-02-27T20:22:20.002Z,65.93
2019-02-27T20:24:48.785Z,66.35
2019-02-27T20:27:17.099Z,66.38
2019-02-27T20:29:45.979Z,67.02
2019-02-27T20:32:13.536Z,67.70
2019-02-27T20:34:42.625Z,67.70
2019-02-27T20:37:18.967Z,68.09
2019-02-27T20:39:47.411Z,67.75
2019-02-27T20:42:16.191Z,66.94
2019-02-27T20:44:44.840Z,67.30
2019-02-27T20:47:13.054Z,67.34
2019-02-27T20:49:41.329Z,67.76
2019-02-27T20:52:14.709Z,67.37
2019-02-27T20:54:46.257Z,68.01
2019-02-27T20:57:15.028Z,68.86
2019-02-27T20:59:43.631Z,68.75
2019-02-27T21:02:11.942Z,69.98
2019-02-27T21:04:40.595Z,70.14
2019-02-27T21:07:09.231Z,69.46
2019-02-27T21:09:37.253Z,69.59
2019-02-27T21:12:07.253Z,69.33
2019-02-27T21:14:35.124Z,68.39
2019-02-27T21:17:03.755Z,67.62
2019-02-27T21:19:33.887Z,67.04
2019-02-27T21:22:03.026Z,69.72
2019-02-27T21:24:31.516Z,69.50
2019-02-27T21:27:00.867Z,68.95
2019-02-27T21:29:30.088Z,69.63
2019-02-27T21:32:01.632Z,68.92
2019-02-27T21:34:29.429Z,70.46
2019-02-27T21:36:58.004Z,68.96
2019-02-27T21:40:06.642Z,70.31
2019-02-27T21:42:35.422Z,70.98
2019-02-27T21:45:04.582Z,70.46
2019-02-27T21:47:53.106Z,70.78
2019-02-27T21:50:33.573Z,70.05
2019-02-27T21:53:02.121Z,70.00
2019-02-27T21:55:30.607Z,70.33
2019-02-27T21:57:59.444Z,70.06
2019-02-27T22:03:44.776Z,71.55
2019-02-27T22:06:13.654Z,70.80
2019-02-27T22:08:41.919Z,70.36
2019-02-27T22:11:10.449Z,69.17
2019-02-27T22:19:19.988Z,70.56
2019-02-27T22:21:55.149Z,70.24
2019-02-27T22:24:23.539Z,70.03
2019-02-27T22:26:52.229Z,69.30
2019-02-27T22:30:01.138Z,68.54
2019-02-27T22:32:29.877Z,69.06
2019-02-27T22:35:39.016Z,68.88
2019-02-27T22:38:26.827Z,69.10
2019-02-27T22:41:03.701Z,69.67
2019-02-27T22:43:34.528Z,70.39
2019-02-27T22:46:09.935Z,70.90
2019-02-27T22:48:38.438Z,71.49
2019-02-27T22:51:06.718Z,72.10
2019-02-27T22:53:35.013Z,72.84
2019-02-27T22:56:03.784Z,73.33
2019-02-27T22:58:32.462Z,72.96
2019-02-27T23:01:42.038Z,73.41
2019-02-27T23:04:10.805Z,73.48
2019-02-27T23:06:39.071Z,73.62
2019-02-27T23:12:30.280Z,73.64
2019-02-27T23:14:58.548Z,73.16
2019-02-27T23:17:27.180Z,72.71
2019-02-27T23:19:55.422Z,72.52
2019-02-27T23:22:24.069Z,72.48
2019-02-27T23:24:52.734Z,72.39
2019-02-27T23:27:20.921Z,72.50
2019-02-27T23:29:49.485Z,72.17
2019-02-27T23:32:18.034Z,71.46
2019-02-27T23:34:46.660Z,71.32
2019-02-27T23:37:14.522Z,71.13
2019-02-27T23:39:42.892Z,71.92
2019-02-27T23:45:20.228Z,72.12
2019-02-27T23:47:48.445Z,71.79
2019-02-27T23:50:16.756Z,72.49
2019-02-27T23:52:45.290Z,73.92
2019-02-27T23:55:13.126Z,73.12
2019-02-27T23:57:40.642Z,73.68
